KETH

Details ICAO KETH
Name WHEATON MUNI
Region United States
Timezone America/Chicago (UTC-5.0)
Plans Departing 0
Arriving 0
Stats Elevation 1,025 ft / 312 m (AMSL)
Location 45.780628° -96.543809°
Runways 2
Magnetic Variation 2.758° E
Sunrise 2018-05-23 10:47:51 UTC / 2018-05-23 05:47:51 Local
Sunset 2018-05-24 02:00:54 UTC / 2018-05-23 21:00:54 Local
Advertisement - Login to hide

Runways

ID Width Length Bearing (true) Bearing (mag) Surface Threshold Offset Overrun Length
04 175 ft / 53 m 1,915 ft / 584 m 60.16° 57.40° Grass 0 ft / 0 m 0 ft / 0 m
16 75 ft / 23 m 3,300 ft / 1,006 m 164.08° 161.32° Asphalt 0 ft / 0 m 0 ft / 0 m
22 175 ft / 53 m 1,915 ft / 584 m 240.17° 237.41° Grass 0 ft / 0 m 0 ft / 0 m
34 75 ft / 23 m 3,300 ft / 1,006 m 344.09° 341.33° Asphalt 0 ft / 0 m 0 ft / 0 m

Map

Weather


0- 5 10 15 20 25 30 35+ Temperature / ° C

Clouds and Precipitation
Forecast for 2018-05-23 12:00 UTC. Updated 2 hours ago

Ground ~20,000 ft ~40,000 ft Winds

METAR

KETH 231331Z AUTO 15005KT 7SM RA SCT017 BKN095 17/14 A3004 RMK AO2 LTG DSNT SE AND SW P0001

TAF

Not found

Frequencies

Unicom 122.90 MHz CTAF
Unicom 122.80 MHz UNICOM
Warning: Do not use this data for real-world aviation or navigation. No guarantee of current accuracy is given.